sensor_id;sensor_type;location;lat;lon;timestamp;pressure;altitude;pressure_sealevel;temperature;humidity
77975;BME280;67164;51.202;0.278;2024-03-25T00:01:36;100527.80;;;21.43;38.87
77975;BME280;67164;51.202;0.278;2024-03-25T00:04:00;100523.15;;;20.84;39.38
77975;BME280;67164;51.202;0.278;2024-03-25T00:06:26;100521.32;;;20.47;39.15
77975;BME280;67164;51.202;0.278;2024-03-25T00:08:53;100519.51;;;20.91;38.91
77975;BME280;67164;51.202;0.278;2024-03-25T00:11:20;100509.43;;;20.72;38.91
77975;BME280;67164;51.202;0.278;2024-03-25T00:13:45;100504.51;;;20.88;39.19
77975;BME280;67164;51.202;0.278;2024-03-25T00:16:12;100501.28;;;20.63;38.72
77975;BME280;67164;51.202;0.278;2024-03-25T00:18:38;100497.74;;;20.55;38.55
77975;BME280;67164;51.202;0.278;2024-03-25T00:21:04;100500.58;;;21.11;38.52
77975;BME280;67164;51.202;0.278;2024-03-25T00:23:30;100502.33;;;20.68;38.61
77975;BME280;67164;51.202;0.278;2024-03-25T00:25:55;100497.60;;;20.80;38.59
77975;BME280;67164;51.202;0.278;2024-03-25T00:28:19;100495.47;;;20.08;39.08
77975;BME280;67164;51.202;0.278;2024-03-25T00:30:44;100492.60;;;20.59;38.71
77975;BME280;67164;51.202;0.278;2024-03-25T00:33:10;100489.58;;;20.33;38.32
77975;BME280;67164;51.202;0.278;2024-03-25T00:35:36;100483.28;;;20.14;38.79
77975;BME280;67164;51.202;0.278;2024-03-25T00:38:02;100472.14;;;20.18;39.17
77975;BME280;67164;51.202;0.278;2024-03-25T00:40:28;100473.74;;;20.04;39.14
77975;BME280;67164;51.202;0.278;2024-03-25T00:42:55;100473.89;;;20.35;38.85
77975;BME280;67164;51.202;0.278;2024-03-25T00:45:20;100469.06;;;20.17;38.96
77975;BME280;67164;51.202;0.278;2024-03-25T00:47:46;100468.67;;;19.80;38.82
77975;BME280;67164;51.202;0.278;2024-03-25T00:50:12;100463.25;;;20.01;38.81
77975;BME280;67164;51.202;0.278;2024-03-25T00:52:38;100456.37;;;19.93;38.81
77975;BME280;67164;51.202;0.278;2024-03-25T00:55:05;100454.50;;;19.92;38.47
77975;BME280;67164;51.202;0.278;2024-03-25T00:57:28;100451.22;;;20.09;38.55
77975;BME280;67164;51.202;0.278;2024-03-25T00:59:53;100449.39;;;20.11;38.51
77975;BME280;67164;51.202;0.278;2024-03-25T01:02:20;100442.86;;;20.12;38.47
77975;BME280;67164;51.202;0.278;2024-03-25T01:04:46;100439.66;;;19.90;38.39
77975;BME280;67164;51.202;0.278;2024-03-25T01:07:13;100439.77;;;20.21;38.26
77975;BME280;67164;51.202;0.278;2024-03-25T01:09:36;100432.94;;;19.95;38.45
77975;BME280;67164;51.202;0.278;2024-03-25T01:12:05;100429.93;;;19.98;38.44
77975;BME280;67164;51.202;0.278;2024-03-25T01:14:29;100427.96;;;20.02;38.37
77975;BME280;67164;51.202;0.278;2024-03-25T01:16:54;100424.91;;;20.09;38.19
77975;BME280;67164;51.202;0.278;2024-03-25T01:19:19;100419.12;;;19.84;38.53
77975;BME280;67164;51.202;0.278;2024-03-25T01:21:46;100420.82;;;20.01;38.59
77975;BME280;67164;51.202;0.278;2024-03-25T01:24:11;100417.90;;;20.00;38.63
77975;BME280;67164;51.202;0.278;2024-03-25T01:26:35;100415.35;;;20.15;38.64
77975;BME280;67164;51.202;0.278;2024-03-25T01:29:01;100407.06;;;20.19;38.71
77975;BME280;67164;51.202;0.278;2024-03-25T01:31:27;100398.44;;;20.20;38.48
77975;BME280;67164;51.202;0.278;2024-03-25T01:33:52;100401.00;;;20.34;38.48
77975;BME280;67164;51.202;0.278;2024-03-25T01:36:19;100405.78;;;20.26;38.68
77975;BME280;67164;51.202;0.278;2024-03-25T01:38:46;100398.80;;;20.68;37.98
77975;BME280;67164;51.202;0.278;2024-03-25T01:41:12;100394.95;;;20.49;38.61
77975;BME280;67164;51.202;0.278;2024-03-25T01:43:36;100388.17;;;20.80;38.49
77975;BME280;67164;51.202;0.278;2024-03-25T01:46:01;100385.87;;;20.65;38.03
77975;BME280;67164;51.202;0.278;2024-03-25T01:48:28;100389.96;;;20.68;38.09
77975;BME280;67164;51.202;0.278;2024-03-25T01:50:55;100388.79;;;20.69;38.27
77975;BME280;67164;51.202;0.278;2024-03-25T01:53:20;100391.24;;;20.84;37.67
77975;BME280;67164;51.202;0.278;2024-03-25T01:55:45;100387.22;;;21.06;37.16
77975;BME280;67164;51.202;0.278;2024-03-25T01:58:11;100387.11;;;20.95;36.44
77975;BME280;67164;51.202;0.278;2024-03-25T02:00:37;100384.19;;;21.09;37.46
77975;BME280;67164;51.202;0.278;2024-03-25T02:03:02;100380.85;;;21.40;37.41
77975;BME280;67164;51.202;0.278;2024-03-25T02:05:28;100374.66;;;20.96;36.30
77975;BME280;67164;51.202;0.278;2024-03-25T02:07:54;100368.34;;;20.89;36.32
77975;BME280;67164;51.202;0.278;2024-03-25T02:10:18;100364.12;;;21.16;36.11
77975;BME280;67164;51.202;0.278;2024-03-25T02:12:42;100360.93;;;21.15;35.88
77975;BME280;67164;51.202;0.278;2024-03-25T02:15:09;100359.58;;;20.77;37.41
77975;BME280;67164;51.202;0.278;2024-03-25T02:17:35;100360.06;;;20.84;36.16
77975;BME280;67164;51.202;0.278;2024-03-25T02:19:58;100355.76;;;20.75;36.13
77975;BME280;67164;51.202;0.278;2024-03-25T02:22:25;100354.55;;;20.68;37.41
77975;BME280;67164;51.202;0.278;2024-03-25T02:24:54;100353.49;;;20.81;36.04
77975;BME280;67164;51.202;0.278;2024-03-25T02:27:16;100348.45;;;21.04;36.13
77975;BME280;67164;51.202;0.278;2024-03-25T02:29:42;100346.41;;;20.99;35.99
77975;BME280;67164;51.202;0.278;2024-03-25T02:32:09;100342.24;;;20.77;35.92
77975;BME280;67164;51.202;0.278;2024-03-25T02:34:32;100339.68;;;21.01;35.95
77975;BME280;67164;51.202;0.278;2024-03-25T02:36:58;100337.19;;;20.99;36.55
77975;BME280;67164;51.202;0.278;2024-03-25T02:39:24;100338.76;;;20.78;35.93
77975;BME280;67164;51.202;0.278;2024-03-25T02:41:50;100333.64;;;20.86;36.70
77975;BME280;67164;51.202;0.278;2024-03-25T02:44:15;100331.27;;;20.87;35.97
77975;BME280;67164;51.202;0.278;2024-03-25T02:46:41;100322.68;;;20.40;36.43
77975;BME280;67164;51.202;0.278;2024-03-25T02:49:07;100314.70;;;20.86;36.16
77975;BME280;67164;51.202;0.278;2024-03-25T02:51:32;100309.05;;;20.85;36.28
77975;BME280;67164;51.202;0.278;2024-03-25T02:53:58;100308.38;;;20.69;36.11
77975;BME280;67164;51.202;0.278;2024-03-25T02:56:24;100301.36;;;20.53;36.85
77975;BME280;67164;51.202;0.278;2024-03-25T02:58:50;100294.83;;;20.51;36.03
77975;BME280;67164;51.202;0.278;2024-03-25T03:01:16;100291.76;;;20.57;36.27
77975;BME280;67164;51.202;0.278;2024-03-25T03:03:43;100285.19;;;20.58;36.58
77975;BME280;67164;51.202;0.278;2024-03-25T03:06:07;100280.27;;;20.49;36.39
77975;BME280;67164;51.202;0.278;2024-03-25T03:08:32;100276.92;;;20.37;36.59
77975;BME280;67164;51.202;0.278;2024-03-25T03:10:57;100273.60;;;20.28;36.31
77975;BME280;67164;51.202;0.278;2024-03-25T03:13:24;100270.45;;;20.37;36.20
77975;BME280;67164;51.202;0.278;2024-03-25T03:15:49;100268.80;;;20.48;36.54
77975;BME280;67164;51.202;0.278;2024-03-25T03:18:15;100272.01;;;20.40;36.17
77975;BME280;67164;51.202;0.278;2024-03-25T03:20:40;100269.58;;;20.01;36.14
77975;BME280;67164;51.202;0.278;2024-03-25T03:23:06;100272.01;;;20.27;36.23
77975;BME280;67164;51.202;0.278;2024-03-25T03:25:31;100267.94;;;20.14;36.24
77975;BME280;67164;51.202;0.278;2024-03-25T03:27:56;100270.51;;;20.23;36.36
77975;BME280;67164;51.202;0.278;2024-03-25T03:30:21;100265.32;;;20.20;36.19
77975;BME280;67164;51.202;0.278;2024-03-25T03:32:47;100258.09;;;20.25;36.42
77975;BME280;67164;51.202;0.278;2024-03-25T03:35:12;100255.50;;;20.15;36.40
77975;BME280;67164;51.202;0.278;2024-03-25T03:37:38;100254.53;;;20.00;36.68
77975;BME280;67164;51.202;0.278;2024-03-25T03:40:04;100250.52;;;19.83;36.88
77975;BME280;67164;51.202;0.278;2024-03-25T03:42:29;100247.86;;;19.97;36.21
77975;BME280;67164;51.202;0.278;2024-03-25T03:44:55;100244.49;;;20.05;36.05
77975;BME280;67164;51.202;0.278;2024-03-25T03:47:20;100240.82;;;20.09;36.15
77975;BME280;67164;51.202;0.278;2024-03-25T03:49:46;100234.59;;;20.31;36.23
77975;BME280;67164;51.202;0.278;2024-03-25T03:52:12;100228.75;;;19.93;36.42
77975;BME280;67164;51.202;0.278;2024-03-25T03:54:37;100224.96;;;19.69;36.52
77975;BME280;67164;51.202;0.278;2024-03-25T03:57:03;100224.06;;;20.26;36.51
77975;BME280;67164;51.202;0.278;2024-03-25T03:59:28;100219.26;;;19.83;36.24
77975;BME280;67164;51.202;0.278;2024-03-25T04:01:54;100217.43;;;19.97;36.21
77975;BME280;67164;51.202;0.278;2024-03-25T04:04:19;100213.66;;;19.84;36.38
77975;BME280;67164;51.202;0.278;2024-03-25T04:06:44;100212.89;;;20.00;35.94
77975;BME280;67164;51.202;0.278;2024-03-25T04:09:10;100209.91;;;19.97;36.66
77975;BME280;67164;51.202;0.278;2024-03-25T04:11:36;100208.41;;;19.82;36.28
77975;BME280;67164;51.202;0.278;2024-03-25T04:14:01;100204.28;;;19.62;36.30
77975;BME280;67164;51.202;0.278;2024-03-25T04:16:27;100200.09;;;19.61;36.20
77975;BME280;67164;51.202;0.278;2024-03-25T04:18:53;100196.08;;;19.40;36.53
77975;BME280;67164;51.202;0.278;2024-03-25T04:21:19;100199.15;;;19.76;36.40
77975;BME280;67164;51.202;0.278;2024-03-25T04:23:44;100199.69;;;19.72;36.46
77975;BME280;67164;51.202;0.278;2024-03-25T04:26:10;100197.08;;;19.50;36.52
77975;BME280;67164;51.202;0.278;2024-03-25T04:28:36;100193.62;;;19.73;36.51
77975;BME280;67164;51.202;0.278;2024-03-25T04:31:02;100190.02;;;19.91;36.10
77975;BME280;67164;51.202;0.278;2024-03-25T04:33:28;100188.06;;;19.97;36.10
77975;BME280;67164;51.202;0.278;2024-03-25T04:35:53;100189.95;;;19.85;36.38
77975;BME280;67164;51.202;0.278;2024-03-25T04:38:19;100188.35;;;20.04;36.28
77975;BME280;67164;51.202;0.278;2024-03-25T04:40:45;100184.40;;;20.00;36.48
77975;BME280;67164;51.202;0.278;2024-03-25T04:43:11;100183.06;;;19.63;36.27
77975;BME280;67164;51.202;0.278;2024-03-25T04:45:37;100182.62;;;19.38;36.39
77975;BME280;67164;51.202;0.278;2024-03-25T04:48:03;100180.18;;;19.79;36.34
77975;BME280;67164;51.202;0.278;2024-03-25T04:50:32;100175.55;;;19.33;36.37
77975;BME280;67164;51.202;0.278;2024-03-25T04:52:56;100174.50;;;19.36;36.28
77975;BME280;67164;51.202;0.278;2024-03-25T04:55:20;100171.84;;;19.40;36.33
77975;BME280;67164;51.202;0.278;2024-03-25T04:57:48;100169.30;;;19.78;36.29
77975;BME280;67164;51.202;0.278;2024-03-25T05:00:14;100165.13;;;18.99;36.56
77975;BME280;67164;51.202;0.278;2024-03-25T05:02:38;100163.21;;;19.42;36.16
77975;BME280;67164;51.202;0.278;2024-03-25T05:05:04;100157.72;;;19.36;36.23
77975;BME280;67164;51.202;0.278;2024-03-25T05:07:31;100155.80;;;19.47;36.47
77975;BME280;67164;51.202;0.278;2024-03-25T05:09:56;100159.63;;;19.50;36.10
77975;BME280;67164;51.202;0.278;2024-03-25T05:12:22;100158.75;;;19.62;36.16
77975;BME280;67164;51.202;0.278;2024-03-25T05:14:49;100158.89;;;19.50;36.12
77975;BME280;67164;51.202;0.278;2024-03-25T05:17:14;100155.38;;;19.74;36.15
77975;BME280;67164;51.202;0.278;2024-03-25T05:19:38;100153.09;;;19.47;36.40
77975;BME280;67164;51.202;0.278;2024-03-25T05:22:05;100151.92;;;19.43;36.29
77975;BME280;67164;51.202;0.278;2024-03-25T05:24:31;100149.86;;;19.02;36.43
77975;BME280;67164;51.202;0.278;2024-03-25T05:26:55;100150.62;;;19.25;36.19
77975;BME280;67164;51.202;0.278;2024-03-25T05:29:19;100148.77;;;19.56;36.13
77975;BME280;67164;51.202;0.278;2024-03-25T05:31:56;100144.34;;;19.40;36.23
77975;BME280;67164;51.202;0.278;2024-03-25T05:34:12;100142.29;;;19.29;36.16
77975;BME280;67164;51.202;0.278;2024-03-25T05:36:38;100141.12;;;19.37;36.36
77975;BME280;67164;51.202;0.278;2024-03-25T05:39:04;100140.10;;;19.13;36.37
77975;BME280;67164;51.202;0.278;2024-03-25T05:41:28;100136.15;;;19.53;36.26
77975;BME280;67164;51.202;0.278;2024-03-25T05:43:54;100134.45;;;19.09;36.31
77975;BME280;67164;51.202;0.278;2024-03-25T05:46:20;100135.52;;;19.43;36.41
77975;BME280;67164;51.202;0.278;2024-03-25T05:48:45;100136.38;;;19.64;36.25
77975;BME280;67164;51.202;0.278;2024-03-25T05:51:11;100134.60;;;19.54;36.38
77975;BME280;67164;51.202;0.278;2024-03-25T05:53:37;100132.97;;;19.16;36.41
77975;BME280;67164;51.202;0.278;2024-03-25T05:56:03;100132.46;;;19.04;36.47
77975;BME280;67164;51.202;0.278;2024-03-25T05:58:30;100127.80;;;19.56;36.37
77975;BME280;67164;51.202;0.278;2024-03-25T06:00:54;100119.83;;;19.22;36.42
77975;BME280;67164;51.202;0.278;2024-03-25T06:03:20;100124.75;;;19.09;36.32
77975;BME280;67164;51.202;0.278;2024-03-25T06:05:46;100126.42;;;19.25;36.50
77975;BME280;67164;51.202;0.278;2024-03-25T06:08:12;100124.13;;;19.23;36.53
77975;BME280;67164;51.202;0.278;2024-03-25T06:10:37;100120.25;;;19.01;36.70
77975;BME280;67164;51.202;0.278;2024-03-25T06:13:03;100119.74;;;18.91;36.73
77975;BME280;67164;51.202;0.278;2024-03-25T06:15:29;100116.76;;;19.10;36.98
77975;BME280;67164;51.202;0.278;2024-03-25T06:17:55;100114.73;;;18.69;36.64
77975;BME280;67164;51.202;0.278;2024-03-25T06:20:20;100116.01;;;19.16;36.43
77975;BME280;67164;51.202;0.278;2024-03-25T06:22:46;100115.55;;;19.03;36.58
77975;BME280;67164;51.202;0.278;2024-03-25T06:25:12;100112.45;;;19.00;36.30
77975;BME280;67164;51.202;0.278;2024-03-25T06:27:37;100110.28;;;19.37;36.60
77975;BME280;67164;51.202;0.278;2024-03-25T06:30:03;100109.66;;;19.27;36.43
77975;BME280;67164;51.202;0.278;2024-03-25T06:32:28;100105.18;;;19.09;36.30
77975;BME280;67164;51.202;0.278;2024-03-25T06:34:54;100097.01;;;19.24;36.71
77975;BME280;67164;51.202;0.278;2024-03-25T06:37:19;100095.13;;;19.05;36.58
77975;BME280;67164;51.202;0.278;2024-03-25T06:39:44;100094.80;;;19.06;36.69
77975;BME280;67164;51.202;0.278;2024-03-25T06:42:10;100093.59;;;19.28;36.50
77975;BME280;67164;51.202;0.278;2024-03-25T06:44:36;100091.67;;;19.08;36.59
77975;BME280;67164;51.202;0.278;2024-03-25T06:47:01;100090.77;;;18.69;36.68
77975;BME280;67164;51.202;0.278;2024-03-25T06:49:27;100091.15;;;19.15;36.64
77975;BME280;67164;51.202;0.278;2024-03-25T06:51:52;100086.10;;;19.21;36.69
77975;BME280;67164;51.202;0.278;2024-03-25T06:54:17;100081.52;;;19.09;36.57
77975;BME280;67164;51.202;0.278;2024-03-25T06:56:42;100078.23;;;19.01;36.58
77975;BME280;67164;51.202;0.278;2024-03-25T06:59:08;100076.74;;;19.10;36.71
77975;BME280;67164;51.202;0.278;2024-03-25T07:01:33;100072.41;;;18.89;36.83
77975;BME280;67164;51.202;0.278;2024-03-25T07:03:58;100068.25;;;19.23;36.72
77975;BME280;67164;51.202;0.278;2024-03-25T07:06:23;100064.84;;;19.01;36.88
77975;BME280;67164;51.202;0.278;2024-03-25T07:08:49;100060.66;;;18.67;37.31
77975;BME280;67164;51.202;0.278;2024-03-25T07:11:15;100058.33;;;18.71;37.19
77975;BME280;67164;51.202;0.278;2024-03-25T07:13:39;100055.67;;;19.26;36.62
77975;BME280;67164;51.202;0.278;2024-03-25T07:16:05;100054.01;;;18.93;36.63
77975;BME280;67164;51.202;0.278;2024-03-25T07:18:30;100048.66;;;18.80;36.74
77975;BME280;67164;51.202;0.278;2024-03-25T07:20:55;100040.53;;;19.10;36.80
77975;BME280;67164;51.202;0.278;2024-03-25T07:23:21;100031.43;;;19.53;36.49
77975;BME280;67164;51.202;0.278;2024-03-25T07:25:46;100034.48;;;19.91;36.35
77975;BME280;67164;51.202;0.278;2024-03-25T07:28:11;100042.78;;;19.77;36.41
77975;BME280;67164;51.202;0.278;2024-03-25T07:30:36;100046.59;;;19.90;37.26
77975;BME280;67164;51.202;0.278;2024-03-25T07:33:03;100041.73;;;19.73;37.69
77975;BME280;67164;51.202;0.278;2024-03-25T07:35:27;100042.61;;;19.29;37.84
77975;BME280;67164;51.202;0.278;2024-03-25T07:37:53;100046.47;;;19.09;37.64
77975;BME280;67164;51.202;0.278;2024-03-25T07:40:19;100046.62;;;19.18;37.45
77975;BME280;67164;51.202;0.278;2024-03-25T07:42:44;100044.82;;;19.12;37.54
77975;BME280;67164;51.202;0.278;2024-03-25T07:45:10;100043.98;;;19.50;37.53
77975;BME280;67164;51.202;0.278;2024-03-25T07:47:36;100035.44;;;18.83;37.83
77975;BME280;67164;51.202;0.278;2024-03-25T07:50:02;100036.71;;;19.05;38.03
77975;BME280;67164;51.202;0.278;2024-03-25T07:52:28;100033.78;;;18.86;38.21
77975;BME280;67164;51.202;0.278;2024-03-25T07:54:55;100032.55;;;19.53;38.28
77975;BME280;67164;51.202;0.278;2024-03-25T07:57:20;100025.55;;;19.00;38.40
77975;BME280;67164;51.202;0.278;2024-03-25T07:59:46;100021.25;;;19.26;38.43
77975;BME280;67164;51.202;0.278;2024-03-25T08:02:13;100022.81;;;18.94;38.49
77975;BME280;67164;51.202;0.278;2024-03-25T08:04:38;100017.39;;;19.09;38.30
77975;BME280;67164;51.202;0.278;2024-03-25T08:07:03;100012.41;;;19.53;38.04
77975;BME280;67164;51.202;0.278;2024-03-25T08:09:31;100016.70;;;19.24;38.12
77975;BME280;67164;51.202;0.278;2024-03-25T08:11:56;100014.56;;;19.07;38.36
77975;BME280;67164;51.202;0.278;2024-03-25T08:14:20;100010.61;;;19.29;38.12
77975;BME280;67164;51.202;0.278;2024-03-25T08:16:47;100007.94;;;19.17;38.30
77975;BME280;67164;51.202;0.278;2024-03-25T08:19:12;100004.33;;;19.10;38.39
77975;BME280;67164;51.202;0.278;2024-03-25T08:21:37;100002.18;;;19.13;38.40
77975;BME280;67164;51.202;0.278;2024-03-25T08:24:03;99999.86;;;19.23;38.44
77975;BME280;67164;51.202;0.278;2024-03-25T08:26:28;100002.29;;;19.51;38.60
77975;BME280;67164;51.202;0.278;2024-03-25T08:28:54;99998.98;;;19.37;38.68
77975;BME280;67164;51.202;0.278;2024-03-25T08:31:20;100001.78;;;19.17;39.23
77975;BME280;67164;51.202;0.278;2024-03-25T08:33:46;99995.87;;;19.80;39.40
77975;BME280;67164;51.202;0.278;2024-03-25T08:36:12;99985.69;;;19.49;39.71
77975;BME280;67164;51.202;0.278;2024-03-25T08:38:38;99987.63;;;19.33;40.22
77975;BME280;67164;51.202;0.278;2024-03-25T08:41:04;99982.24;;;19.81;40.07
77975;BME280;67164;51.202;0.278;2024-03-25T08:43:29;99979.75;;;19.71;40.54
77975;BME280;67164;51.202;0.278;2024-03-25T08:45:55;99974.31;;;19.72;40.62
77975;BME280;67164;51.202;0.278;2024-03-25T08:48:20;99977.43;;;19.89;41.94
77975;BME280;67164;51.202;0.278;2024-03-25T08:50:46;99976.09;;;19.87;42.03
77975;BME280;67164;51.202;0.278;2024-03-25T08:53:12;99974.22;;;19.62;43.97
77975;BME280;67164;51.202;0.278;2024-03-25T08:55:38;99966.20;;;19.73;44.34
77975;BME280;67164;51.202;0.278;2024-03-25T08:58:04;99960.15;;;19.43;44.10
77975;BME280;67164;51.202;0.278;2024-03-25T09:00:29;99962.86;;;19.67;44.10
77975;BME280;67164;51.202;0.278;2024-03-25T09:02:55;99958.22;;;19.23;44.09
77975;BME280;67164;51.202;0.278;2024-03-25T09:05:21;99954.73;;;19.15;43.51
77975;BME280;67164;51.202;0.278;2024-03-25T09:07:50;99957.72;;;19.81;42.45
77975;BME280;67164;51.202;0.278;2024-03-25T09:10:12;99953.55;;;19.73;42.58
77975;BME280;67164;51.202;0.278;2024-03-25T09:12:38;99947.52;;;19.96;42.23
77975;BME280;67164;51.202;0.278;2024-03-25T09:15:05;99948.95;;;19.54;42.42
77975;BME280;67164;51.202;0.278;2024-03-25T09:17:30;99953.67;;;19.72;42.41
77975;BME280;67164;51.202;0.278;2024-03-25T09:19:55;99945.90;;;19.51;42.42
77975;BME280;67164;51.202;0.278;2024-03-25T09:22:21;99942.75;;;19.82;42.30
77975;BME280;67164;51.202;0.278;2024-03-25T09:24:46;99940.77;;;19.75;42.30
77975;BME280;67164;51.202;0.278;2024-03-25T09:27:12;99942.20;;;19.57;42.25
77975;BME280;67164;51.202;0.278;2024-03-25T09:29:38;99941.17;;;19.98;41.73
77975;BME280;67164;51.202;0.278;2024-03-25T09:32:04;99937.67;;;20.00;41.27
77975;BME280;67164;51.202;0.278;2024-03-25T09:34:30;99935.19;;;19.64;41.29
77975;BME280;67164;51.202;0.278;2024-03-25T09:36:55;99935.61;;;19.64;41.09
77975;BME280;67164;51.202;0.278;2024-03-25T09:39:21;99931.54;;;19.95;40.91
77975;BME280;67164;51.202;0.278;2024-03-25T09:41:48;99932.69;;;19.42;40.91
77975;BME280;67164;51.202;0.278;2024-03-25T09:44:13;99929.71;;;19.98;40.73
77975;BME280;67164;51.202;0.278;2024-03-25T09:46:38;99929.63;;;20.13;40.81
77975;BME280;67164;51.202;0.278;2024-03-25T09:49:05;99925.65;;;20.26;40.61
77975;BME280;67164;51.202;0.278;2024-03-25T09:51:30;99924.61;;;20.26;40.73
77975;BME280;67164;51.202;0.278;2024-03-25T09:53:56;99920.39;;;19.88;40.92
77975;BME280;67164;51.202;0.278;2024-03-25T09:56:23;99918.23;;;20.11;40.88
77975;BME280;67164;51.202;0.278;2024-03-25T09:58:47;99918.32;;;19.89;41.26
77975;BME280;67164;51.202;0.278;2024-03-25T10:01:14;99918.81;;;19.63;41.65
77975;BME280;67164;51.202;0.278;2024-03-25T10:03:41;99921.40;;;19.69;41.95
77975;BME280;67164;51.202;0.278;2024-03-25T10:06:04;99917.45;;;19.75;41.93
77975;BME280;67164;51.202;0.278;2024-03-25T10:08:30;99914.69;;;19.71;42.05
77975;BME280;67164;51.202;0.278;2024-03-25T10:10:56;99909.27;;;19.24;42.06
77975;BME280;67164;51.202;0.278;2024-03-25T10:13:22;99907.37;;;19.69;42.45
77975;BME280;67164;51.202;0.278;2024-03-25T10:15:48;99902.14;;;19.76;42.58
77975;BME280;67164;51.202;0.278;2024-03-25T10:18:14;99900.79;;;19.57;42.79
77975;BME280;67164;51.202;0.278;2024-03-25T10:20:47;99898.24;;;19.83;42.68
77975;BME280;67164;51.202;0.278;2024-03-25T10:23:06;99899.69;;;19.72;42.89
77975;BME280;67164;51.202;0.278;2024-03-25T10:25:33;99899.94;;;19.66;43.04
77975;BME280;67164;51.202;0.278;2024-03-25T10:27:59;99899.46;;;19.60;43.33
77975;BME280;67164;51.202;0.278;2024-03-25T10:30:23;99892.99;;;19.63;43.40
77975;BME280;67164;51.202;0.278;2024-03-25T10:32:59;99894.17;;;20.09;43.20
77975;BME280;67164;51.202;0.278;2024-03-25T10:35:17;99886.72;;;19.73;42.86
77975;BME280;67164;51.202;0.278;2024-03-25T10:37:40;99886.03;;;19.71;42.66
77975;BME280;67164;51.202;0.278;2024-03-25T10:40:10;99882.60;;;20.05;42.39
77975;BME280;67164;51.202;0.278;2024-03-25T10:42:35;99886.06;;;19.80;42.25
77975;BME280;67164;51.202;0.278;2024-03-25T10:44:58;99884.56;;;20.07;42.23
77975;BME280;67164;51.202;0.278;2024-03-25T10:47:27;99879.24;;;19.77;42.28
77975;BME280;67164;51.202;0.278;2024-03-25T10:49:52;99873.07;;;20.22;41.98
77975;BME280;67164;51.202;0.278;2024-03-25T10:52:16;99871.26;;;19.82;42.67
77975;BME280;67164;51.202;0.278;2024-03-25T10:54:41;99864.77;;;20.37;42.58
77975;BME280;67164;51.202;0.278;2024-03-25T10:57:08;99861.93;;;19.73;43.30
77975;BME280;67164;51.202;0.278;2024-03-25T10:59:32;99863.20;;;19.62;43.39
77975;BME280;67164;51.202;0.278;2024-03-25T11:01:58;99862.07;;;19.85;42.94
77975;BME280;67164;51.202;0.278;2024-03-25T11:04:24;99862.37;;;19.77;42.99
77975;BME280;67164;51.202;0.278;2024-03-25T11:06:50;99858.63;;;20.03;42.92
77975;BME280;67164;51.202;0.278;2024-03-25T11:09:23;99855.07;;;20.24;42.30
77975;BME280;67164;51.202;0.278;2024-03-25T11:11:42;99852.26;;;19.97;42.67
77975;BME280;67164;51.202;0.278;2024-03-25T11:14:15;99849.52;;;20.06;42.50
77975;BME280;67164;51.202;0.278;2024-03-25T11:16:33;99847.45;;;20.04;42.50
77975;BME280;67164;51.202;0.278;2024-03-25T11:19:02;99843.16;;;20.25;42.23
77975;BME280;67164;51.202;0.278;2024-03-25T11:21:25;99838.88;;;20.15;42.32
77975;BME280;67164;51.202;0.278;2024-03-25T11:23:51;99839.15;;;20.11;42.40
77975;BME280;67164;51.202;0.278;2024-03-25T11:26:18;99832.65;;;20.17;42.33
77975;BME280;67164;51.202;0.278;2024-03-25T11:28:42;99833.85;;;20.03;42.61
77975;BME280;67164;51.202;0.278;2024-03-25T11:31:08;99829.15;;;19.91;42.37
77975;BME280;67164;51.202;0.278;2024-03-25T11:33:37;99821.04;;;20.42;42.04
77975;BME280;67164;51.202;0.278;2024-03-25T11:35:59;99815.85;;;19.90;42.51
77975;BME280;67164;51.202;0.278;2024-03-25T11:38:25;99817.87;;;20.33;42.32
77975;BME280;67164;51.202;0.278;2024-03-25T11:40:53;99811.71;;;20.29;42.37
77975;BME280;67164;51.202;0.278;2024-03-25T11:43:18;99808.69;;;20.38;42.67
77975;BME280;67164;51.202;0.278;2024-03-25T11:45:47;99802.97;;;20.54;42.98
77975;BME280;67164;51.202;0.278;2024-03-25T11:48:08;99798.38;;;20.12;43.15
77975;BME280;67164;51.202;0.278;2024-03-25T11:50:34;99792.37;;;20.23;43.31
77975;BME280;67164;51.202;0.278;2024-03-25T11:52:59;99791.86;;;20.16;43.56
77975;BME280;67164;51.202;0.278;2024-03-25T11:55:24;99787.46;;;20.17;43.41
77975;BME280;67164;51.202;0.278;2024-03-25T11:57:55;99783.74;;;20.58;43.48
77975;BME280;67164;51.202;0.278;2024-03-25T12:00:15;99775.73;;;20.41;43.77
77975;BME280;67164;51.202;0.278;2024-03-25T12:02:43;99766.27;;;20.45;43.74
77975;BME280;67164;51.202;0.278;2024-03-25T12:05:06;99756.71;;;20.46;43.70
77975;BME280;67164;51.202;0.278;2024-03-25T12:07:32;99749.43;;;20.67;43.42
77975;BME280;67164;51.202;0.278;2024-03-25T12:09:57;99748.84;;;20.57;43.86
77975;BME280;67164;51.202;0.278;2024-03-25T12:12:23;99745.95;;;20.78;43.88
77975;BME280;67164;51.202;0.278;2024-03-25T12:14:49;99742.98;;;20.59;43.73
77975;BME280;67164;51.202;0.278;2024-03-25T12:17:14;99737.48;;;20.87;43.31
77975;BME280;67164;51.202;0.278;2024-03-25T12:19:40;99732.86;;;20.70;43.52
77975;BME280;67164;51.202;0.278;2024-03-25T12:22:06;99735.37;;;20.66;43.21
77975;BME280;67164;51.202;0.278;2024-03-25T12:24:31;99722.72;;;20.69;43.44
77975;BME280;67164;51.202;0.278;2024-03-25T12:26:57;99723.72;;;20.80;43.27
77975;BME280;67164;51.202;0.278;2024-03-25T12:29:25;99721.88;;;20.85;43.17
77975;BME280;67164;51.202;0.278;2024-03-25T12:31:54;99714.38;;;20.98;43.03
77975;BME280;67164;51.202;0.278;2024-03-25T12:34:17;99707.90;;;20.63;43.17
77975;BME280;67164;51.202;0.278;2024-03-25T12:36:38;99706.92;;;20.99;42.99
77975;BME280;67164;51.202;0.278;2024-03-25T12:39:04;99701.91;;;20.84;43.34
77975;BME280;67164;51.202;0.278;2024-03-25T12:41:29;99699.21;;;20.79;43.09
77975;BME280;67164;51.202;0.278;2024-03-25T12:43:55;99694.16;;;21.10;42.94